sensor_id;sensor_type;location;lat;lon;timestamp;P1;durP1;ratioP1;P2;durP2;ratioP2
7843;SDS011;3967;48.702;9.326;2023-05-07T00:01:29;2.20;;;2.00;;
7843;SDS011;3967;48.702;9.326;2023-05-07T00:03:56;2.50;;;2.10;;
7843;SDS011;3967;48.702;9.326;2023-05-07T00:06:23;2.40;;;2.20;;
7843;SDS011;3967;48.702;9.326;2023-05-07T00:08:50;4.33;;;2.63;;
7843;SDS011;3967;48.702;9.326;2023-05-07T00:11:16;2.63;;;2.43;;
7843;SDS011;3967;48.702;9.326;2023-05-07T00:13:43;2.40;;;2.10;;
7843;SDS011;3967;48.702;9.326;2023-05-07T00:16:10;5.43;;;1.90;;
7843;SDS011;3967;48.702;9.326;2023-05-07T00:18:37;2.20;;;2.03;;
7843;SDS011;3967;48.702;9.326;2023-05-07T00:21:03;6.50;;;2.10;;
7843;SDS011;3967;48.702;9.326;2023-05-07T00:23:30;3.83;;;1.80;;
7843;SDS011;3967;48.702;9.326;2023-05-07T00:25:57;4.40;;;2.13;;
7843;SDS011;3967;48.702;9.326;2023-05-07T00:28:23;4.20;;;1.70;;
7843;SDS011;3967;48.702;9.326;2023-05-07T00:30:50;2.00;;;1.80;;
7843;SDS011;3967;48.702;9.326;2023-05-07T00:33:17;1.70;;;1.60;;
7843;SDS011;3967;48.702;9.326;2023-05-07T00:35:43;1.63;;;1.53;;
7843;SDS011;3967;48.702;9.326;2023-05-07T00:38:10;1.80;;;1.70;;
7843;SDS011;3967;48.702;9.326;2023-05-07T00:40:37;1.90;;;1.70;;
7843;SDS011;3967;48.702;9.326;2023-05-07T00:43:04;2.17;;;1.97;;
7843;SDS011;3967;48.702;9.326;2023-05-07T00:45:30;1.93;;;1.83;;
7843;SDS011;3967;48.702;9.326;2023-05-07T00:48:00;2.23;;;2.07;;
7843;SDS011;3967;48.702;9.326;2023-05-07T00:50:28;2.17;;;1.97;;
7843;SDS011;3967;48.702;9.326;2023-05-07T00:52:56;2.00;;;1.90;;
7843;SDS011;3967;48.702;9.326;2023-05-07T00:55:23;2.03;;;1.93;;
7843;SDS011;3967;48.702;9.326;2023-05-07T00:57:50;2.03;;;1.93;;
7843;SDS011;3967;48.702;9.326;2023-05-07T01:00:17;1.93;;;1.80;;
7843;SDS011;3967;48.702;9.326;2023-05-07T01:02:44;1.80;;;1.70;;
7843;SDS011;3967;48.702;9.326;2023-05-07T01:05:14;2.50;;;1.90;;
7843;SDS011;3967;48.702;9.326;2023-05-07T01:07:43;1.80;;;1.70;;
7843;SDS011;3967;48.702;9.326;2023-05-07T01:10:11;2.97;;;1.90;;
7843;SDS011;3967;48.702;9.326;2023-05-07T01:12:38;1.90;;;1.80;;
7843;SDS011;3967;48.702;9.326;2023-05-07T01:15:07;1.90;;;1.80;;
7843;SDS011;3967;48.702;9.326;2023-05-07T01:17:38;2.03;;;1.93;;
7843;SDS011;3967;48.702;9.326;2023-05-07T01:20:07;4.10;;;2.20;;
7843;SDS011;3967;48.702;9.326;2023-05-07T01:22:39;3.67;;;2.10;;
7843;SDS011;3967;48.702;9.326;2023-05-07T01:25:07;1.83;;;1.73;;
7843;SDS011;3967;48.702;9.326;2023-05-07T01:27:34;2.20;;;2.00;;
7843;SDS011;3967;48.702;9.326;2023-05-07T01:30:05;2.53;;;2.30;;
7843;SDS011;3967;48.702;9.326;2023-05-07T01:32:48;2.80;;;2.60;;
7843;SDS011;3967;48.702;9.326;2023-05-07T01:35:19;2.63;;;2.43;;
7843;SDS011;3967;48.702;9.326;2023-05-07T01:37:48;2.70;;;2.30;;
7843;SDS011;3967;48.702;9.326;2023-05-07T01:40:16;2.53;;;2.03;;
7843;SDS011;3967;48.702;9.326;2023-05-07T01:42:43;3.27;;;2.60;;
7843;SDS011;3967;48.702;9.326;2023-05-07T01:45:10;2.33;;;2.13;;
7843;SDS011;3967;48.702;9.326;2023-05-07T01:47:37;2.43;;;2.23;;
7843;SDS011;3967;48.702;9.326;2023-05-07T01:50:05;2.60;;;2.20;;
7843;SDS011;3967;48.702;9.326;2023-05-07T01:52:35;3.43;;;2.40;;
7843;SDS011;3967;48.702;9.326;2023-05-07T01:55:04;2.73;;;2.53;;
7843;SDS011;3967;48.702;9.326;2023-05-07T01:57:32;3.53;;;2.40;;
7843;SDS011;3967;48.702;9.326;2023-05-07T01:59:59;3.00;;;2.77;;
7843;SDS011;3967;48.702;9.326;2023-05-07T02:02:25;2.43;;;2.23;;
7843;SDS011;3967;48.702;9.326;2023-05-07T02:04:52;2.90;;;2.40;;
7843;SDS011;3967;48.702;9.326;2023-05-07T02:07:19;4.63;;;3.07;;
7843;SDS011;3967;48.702;9.326;2023-05-07T02:09:45;3.67;;;2.83;;
7843;SDS011;3967;48.702;9.326;2023-05-07T02:12:15;4.27;;;3.10;;
7843;SDS011;3967;48.702;9.326;2023-05-07T02:14:42;3.50;;;3.20;;
7843;SDS011;3967;48.702;9.326;2023-05-07T02:17:09;3.83;;;3.53;;
7843;SDS011;3967;48.702;9.326;2023-05-07T02:19:35;3.00;;;2.80;;
7843;SDS011;3967;48.702;9.326;2023-05-07T02:22:02;5.07;;;3.10;;
7843;SDS011;3967;48.702;9.326;2023-05-07T02:24:29;3.27;;;2.97;;
7843;SDS011;3967;48.702;9.326;2023-05-07T02:26:56;3.40;;;3.10;;
7843;SDS011;3967;48.702;9.326;2023-05-07T02:29:26;3.17;;;2.87;;
7843;SDS011;3967;48.702;9.326;2023-05-07T02:31:52;2.90;;;2.70;;
7843;SDS011;3967;48.702;9.326;2023-05-07T02:34:19;3.67;;;3.00;;
7843;SDS011;3967;48.702;9.326;2023-05-07T02:36:46;3.40;;;2.87;;
7843;SDS011;3967;48.702;9.326;2023-05-07T02:39:13;3.80;;;2.83;;
7843;SDS011;3967;48.702;9.326;2023-05-07T02:41:40;4.70;;;3.63;;
7843;SDS011;3967;48.702;9.326;2023-05-07T02:44:07;3.73;;;3.33;;
7843;SDS011;3967;48.702;9.326;2023-05-07T02:46:33;4.87;;;3.20;;
7843;SDS011;3967;48.702;9.326;2023-05-07T02:49:00;4.43;;;2.93;;
7843;SDS011;3967;48.702;9.326;2023-05-07T02:51:27;2.97;;;2.63;;
7843;SDS011;3967;48.702;9.326;2023-05-07T02:53:53;3.30;;;2.70;;
7843;SDS011;3967;48.702;9.326;2023-05-07T02:56:21;5.13;;;2.97;;
7843;SDS011;3967;48.702;9.326;2023-05-07T02:58:47;5.00;;;3.00;;
7843;SDS011;3967;48.702;9.326;2023-05-07T03:01:14;5.00;;;2.90;;
7843;SDS011;3967;48.702;9.326;2023-05-07T03:03:41;3.00;;;2.70;;
7843;SDS011;3967;48.702;9.326;2023-05-07T03:06:07;3.47;;;2.90;;
7843;SDS011;3967;48.702;9.326;2023-05-07T03:08:34;4.47;;;3.23;;
7843;SDS011;3967;48.702;9.326;2023-05-07T03:11:02;3.07;;;2.80;;
7843;SDS011;3967;48.702;9.326;2023-05-07T03:13:29;4.57;;;3.23;;
7843;SDS011;3967;48.702;9.326;2023-05-07T03:15:56;4.10;;;3.70;;
7843;SDS011;3967;48.702;9.326;2023-05-07T03:18:23;4.97;;;3.60;;
7843;SDS011;3967;48.702;9.326;2023-05-07T03:20:49;3.50;;;3.20;;
7843;SDS011;3967;48.702;9.326;2023-05-07T03:23:18;3.20;;;2.73;;
7843;SDS011;3967;48.702;9.326;2023-05-07T03:25:47;2.90;;;2.70;;
7843;SDS011;3967;48.702;9.326;2023-05-07T03:28:15;4.63;;;3.30;;
7843;SDS011;3967;48.702;9.326;2023-05-07T03:30:42;3.73;;;3.27;;
7843;SDS011;3967;48.702;9.326;2023-05-07T03:33:08;3.57;;;2.87;;
7843;SDS011;3967;48.702;9.326;2023-05-07T03:35:35;4.27;;;2.80;;
7843;SDS011;3967;48.702;9.326;2023-05-07T03:38:02;2.93;;;2.73;;
7843;SDS011;3967;48.702;9.326;2023-05-07T03:40:28;3.53;;;2.77;;
7843;SDS011;3967;48.702;9.326;2023-05-07T03:42:55;3.77;;;3.03;;
7843;SDS011;3967;48.702;9.326;2023-05-07T03:45:22;4.93;;;2.53;;
7843;SDS011;3967;48.702;9.326;2023-05-07T03:47:49;4.17;;;2.57;;
7843;SDS011;3967;48.702;9.326;2023-05-07T03:50:15;3.40;;;3.00;;
7843;SDS011;3967;48.702;9.326;2023-05-07T03:52:42;3.20;;;2.93;;
7843;SDS011;3967;48.702;9.326;2023-05-07T03:55:09;5.47;;;3.23;;
7843;SDS011;3967;48.702;9.326;2023-05-07T03:57:36;3.67;;;2.60;;
7843;SDS011;3967;48.702;9.326;2023-05-07T04:00:02;4.13;;;3.00;;
7843;SDS011;3967;48.702;9.326;2023-05-07T04:02:30;3.20;;;3.00;;
7843;SDS011;3967;48.702;9.326;2023-05-07T04:04:57;3.30;;;2.63;;
7843;SDS011;3967;48.702;9.326;2023-05-07T04:07:24;3.07;;;2.87;;
7843;SDS011;3967;48.702;9.326;2023-05-07T04:09:50;3.10;;;2.90;;
7843;SDS011;3967;48.702;9.326;2023-05-07T04:12:17;3.10;;;2.90;;
7843;SDS011;3967;48.702;9.326;2023-05-07T04:14:44;3.23;;;2.83;;
7843;SDS011;3967;48.702;9.326;2023-05-07T04:17:11;2.80;;;2.60;;
7843;SDS011;3967;48.702;9.326;2023-05-07T04:19:38;4.20;;;3.00;;
7843;SDS011;3967;48.702;9.326;2023-05-07T04:22:04;3.33;;;3.00;;
7843;SDS011;3967;48.702;9.326;2023-05-07T04:24:31;4.17;;;2.80;;
7843;SDS011;3967;48.702;9.326;2023-05-07T04:26:59;3.17;;;2.37;;
7843;SDS011;3967;48.702;9.326;2023-05-07T04:29:25;2.60;;;2.40;;
7843;SDS011;3967;48.702;9.326;2023-05-07T04:31:53;3.10;;;2.87;;
7843;SDS011;3967;48.702;9.326;2023-05-07T04:34:21;2.60;;;2.40;;
7843;SDS011;3967;48.702;9.326;2023-05-07T04:36:48;4.87;;;2.70;;
7843;SDS011;3967;48.702;9.326;2023-05-07T04:39:15;3.90;;;3.20;;
7843;SDS011;3967;48.702;9.326;2023-05-07T04:41:42;2.67;;;2.47;;
7843;SDS011;3967;48.702;9.326;2023-05-07T04:44:09;2.97;;;2.60;;
7843;SDS011;3967;48.702;9.326;2023-05-07T04:46:35;3.57;;;2.97;;
7843;SDS011;3967;48.702;9.326;2023-05-07T04:49:03;3.80;;;2.60;;
7843;SDS011;3967;48.702;9.326;2023-05-07T04:51:30;3.27;;;2.97;;
7843;SDS011;3967;48.702;9.326;2023-05-07T04:53:58;3.47;;;2.93;;
7843;SDS011;3967;48.702;9.326;2023-05-07T04:56:27;2.87;;;2.57;;
7843;SDS011;3967;48.702;9.326;2023-05-07T04:58:55;2.60;;;2.40;;
7843;SDS011;3967;48.702;9.326;2023-05-07T05:01:21;2.83;;;2.63;;
7843;SDS011;3967;48.702;9.326;2023-05-07T05:03:48;3.40;;;2.90;;
7843;SDS011;3967;48.702;9.326;2023-05-07T05:06:15;3.03;;;2.70;;
7843;SDS011;3967;48.702;9.326;2023-05-07T05:08:42;2.90;;;2.70;;
7843;SDS011;3967;48.702;9.326;2023-05-07T05:11:08;3.17;;;2.80;;
7843;SDS011;3967;48.702;9.326;2023-05-07T05:13:35;3.13;;;2.83;;
7843;SDS011;3967;48.702;9.326;2023-05-07T05:16:02;2.80;;;2.60;;
7843;SDS011;3967;48.702;9.326;2023-05-07T05:18:29;2.50;;;2.30;;
7843;SDS011;3967;48.702;9.326;2023-05-07T05:20:56;3.90;;;2.23;;
7843;SDS011;3967;48.702;9.326;2023-05-07T05:23:22;2.97;;;2.17;;
7843;SDS011;3967;48.702;9.326;2023-05-07T05:25:49;3.20;;;2.50;;
7843;SDS011;3967;48.702;9.326;2023-05-07T05:28:16;3.57;;;2.50;;
7843;SDS011;3967;48.702;9.326;2023-05-07T05:30:42;2.57;;;2.27;;
7843;SDS011;3967;48.702;9.326;2023-05-07T05:33:09;3.03;;;2.77;;
7843;SDS011;3967;48.702;9.326;2023-05-07T05:35:36;2.90;;;2.70;;
7843;SDS011;3967;48.702;9.326;2023-05-07T05:38:03;3.13;;;2.83;;
7843;SDS011;3967;48.702;9.326;2023-05-07T05:40:29;2.90;;;2.30;;
7843;SDS011;3967;48.702;9.326;2023-05-07T05:42:56;2.70;;;2.50;;
7843;SDS011;3967;48.702;9.326;2023-05-07T05:45:23;2.80;;;2.60;;
7843;SDS011;3967;48.702;9.326;2023-05-07T05:47:50;2.67;;;2.47;;
7843;SDS011;3967;48.702;9.326;2023-05-07T05:50:17;3.90;;;2.73;;
7843;SDS011;3967;48.702;9.326;2023-05-07T05:52:43;3.50;;;2.50;;
7843;SDS011;3967;48.702;9.326;2023-05-07T05:55:10;3.47;;;3.17;;
7843;SDS011;3967;48.702;9.326;2023-05-07T05:57:37;3.77;;;2.63;;
7843;SDS011;3967;48.702;9.326;2023-05-07T06:00:04;3.67;;;2.67;;
7843;SDS011;3967;48.702;9.326;2023-05-07T06:02:31;2.83;;;2.63;;
7843;SDS011;3967;48.702;9.326;2023-05-07T06:04:58;2.80;;;2.60;;
7843;SDS011;3967;48.702;9.326;2023-05-07T06:07:24;6.33;;;3.10;;
7843;SDS011;3967;48.702;9.326;2023-05-07T06:09:51;2.80;;;2.60;;
7843;SDS011;3967;48.702;9.326;2023-05-07T06:12:18;2.87;;;2.37;;
7843;SDS011;3967;48.702;9.326;2023-05-07T06:14:44;3.50;;;2.83;;
7843;SDS011;3967;48.702;9.326;2023-05-07T06:17:11;3.83;;;2.67;;
7843;SDS011;3967;48.702;9.326;2023-05-07T06:19:38;2.63;;;2.43;;
7843;SDS011;3967;48.702;9.326;2023-05-07T06:22:04;3.53;;;2.37;;
7843;SDS011;3967;48.702;9.326;2023-05-07T06:24:31;4.00;;;2.60;;
7843;SDS011;3967;48.702;9.326;2023-05-07T06:26:58;2.60;;;2.40;;
7843;SDS011;3967;48.702;9.326;2023-05-07T06:29:25;2.67;;;2.40;;
7843;SDS011;3967;48.702;9.326;2023-05-07T06:31:52;2.13;;;2.03;;
7843;SDS011;3967;48.702;9.326;2023-05-07T06:34:19;2.63;;;2.43;;
7843;SDS011;3967;48.702;9.326;2023-05-07T06:36:46;2.60;;;2.40;;
7843;SDS011;3967;48.702;9.326;2023-05-07T06:39:13;3.47;;;2.43;;
7843;SDS011;3967;48.702;9.326;2023-05-07T06:41:39;2.47;;;2.37;;
7843;SDS011;3967;48.702;9.326;2023-05-07T06:44:06;4.20;;;2.27;;
7843;SDS011;3967;48.702;9.326;2023-05-07T06:46:35;3.53;;;2.40;;
7843;SDS011;3967;48.702;9.326;2023-05-07T06:49:02;2.93;;;2.50;;
7843;SDS011;3967;48.702;9.326;2023-05-07T06:51:28;2.83;;;2.20;;
7843;SDS011;3967;48.702;9.326;2023-05-07T06:53:56;2.80;;;2.20;;
7843;SDS011;3967;48.702;9.326;2023-05-07T06:56:22;2.53;;;2.33;;
7843;SDS011;3967;48.702;9.326;2023-05-07T06:58:49;3.70;;;2.30;;
7843;SDS011;3967;48.702;9.326;2023-05-07T07:01:16;2.33;;;2.13;;
7843;SDS011;3967;48.702;9.326;2023-05-07T07:03:43;2.60;;;2.10;;
7843;SDS011;3967;48.702;9.326;2023-05-07T07:06:09;2.50;;;2.30;;
7843;SDS011;3967;48.702;9.326;2023-05-07T07:08:36;3.93;;;2.27;;
7843;SDS011;3967;48.702;9.326;2023-05-07T07:11:05;2.60;;;2.40;;
7843;SDS011;3967;48.702;9.326;2023-05-07T07:13:32;4.10;;;2.40;;
7843;SDS011;3967;48.702;9.326;2023-05-07T07:15:59;2.50;;;2.20;;
7843;SDS011;3967;48.702;9.326;2023-05-07T07:18:27;3.00;;;2.23;;
7843;SDS011;3967;48.702;9.326;2023-05-07T07:20:54;2.97;;;2.20;;
7843;SDS011;3967;48.702;9.326;2023-05-07T07:23:21;2.37;;;2.17;;
7843;SDS011;3967;48.702;9.326;2023-05-07T07:25:48;2.67;;;2.47;;
7843;SDS011;3967;48.702;9.326;2023-05-07T07:28:15;4.10;;;2.17;;
7843;SDS011;3967;48.702;9.326;2023-05-07T07:30:41;2.63;;;2.03;;
7843;SDS011;3967;48.702;9.326;2023-05-07T07:33:08;3.30;;;2.27;;
7843;SDS011;3967;48.702;9.326;2023-05-07T07:35:35;2.83;;;2.13;;
7843;SDS011;3967;48.702;9.326;2023-05-07T07:38:04;2.10;;;2.00;;
7843;SDS011;3967;48.702;9.326;2023-05-07T07:40:31;2.77;;;2.37;;
7843;SDS011;3967;48.702;9.326;2023-05-07T07:42:58;2.17;;;1.90;;
7843;SDS011;3967;48.702;9.326;2023-05-07T07:45:25;2.50;;;2.30;;
7843;SDS011;3967;48.702;9.326;2023-05-07T07:47:52;3.23;;;2.23;;
7843;SDS011;3967;48.702;9.326;2023-05-07T07:50:19;2.03;;;1.93;;
7843;SDS011;3967;48.702;9.326;2023-05-07T07:53:08;2.40;;;2.17;;
7843;SDS011;3967;48.702;9.326;2023-05-07T07:55:38;4.00;;;3.10;;
7843;SDS011;3967;48.702;9.326;2023-05-07T07:58:05;2.90;;;2.70;;
7843;SDS011;3967;48.702;9.326;2023-05-07T08:00:32;2.77;;;2.57;;
7843;SDS011;3967;48.702;9.326;2023-05-07T08:02:59;2.30;;;2.10;;
7843;SDS011;3967;48.702;9.326;2023-05-07T08:05:26;2.70;;;2.50;;
7843;SDS011;3967;48.702;9.326;2023-05-07T08:07:53;4.07;;;2.80;;
7843;SDS011;3967;48.702;9.326;2023-05-07T08:10:21;4.20;;;2.53;;
7843;SDS011;3967;48.702;9.326;2023-05-07T08:12:48;2.70;;;2.50;;
7843;SDS011;3967;48.702;9.326;2023-05-07T08:15:15;3.60;;;2.50;;
7843;SDS011;3967;48.702;9.326;2023-05-07T08:17:43;2.80;;;2.30;;
7843;SDS011;3967;48.702;9.326;2023-05-07T08:20:10;2.10;;;1.90;;
7843;SDS011;3967;48.702;9.326;2023-05-07T08:22:37;2.40;;;2.20;;
7843;SDS011;3967;48.702;9.326;2023-05-07T08:25:04;3.80;;;2.30;;
7843;SDS011;3967;48.702;9.326;2023-05-07T08:27:31;2.40;;;2.20;;
7843;SDS011;3967;48.702;9.326;2023-05-07T08:29:57;3.27;;;2.00;;
7843;SDS011;3967;48.702;9.326;2023-05-07T08:32:24;3.23;;;2.10;;
7843;SDS011;3967;48.702;9.326;2023-05-07T08:34:51;2.50;;;2.30;;
7843;SDS011;3967;48.702;9.326;2023-05-07T08:37:18;2.07;;;1.97;;
7843;SDS011;3967;48.702;9.326;2023-05-07T08:39:45;2.67;;;2.40;;
7843;SDS011;3967;48.702;9.326;2023-05-07T08:42:11;2.40;;;2.20;;
7843;SDS011;3967;48.702;9.326;2023-05-07T08:44:41;2.40;;;2.20;;
7843;SDS011;3967;48.702;9.326;2023-05-07T08:47:14;2.40;;;2.20;;
7843;SDS011;3967;48.702;9.326;2023-05-07T08:49:42;3.60;;;2.40;;
7843;SDS011;3967;48.702;9.326;2023-05-07T08:52:09;2.53;;;2.37;;
7843;SDS011;3967;48.702;9.326;2023-05-07T08:54:37;3.10;;;2.30;;
7843;SDS011;3967;48.702;9.326;2023-05-07T08:57:04;2.70;;;2.50;;
7843;SDS011;3967;48.702;9.326;2023-05-07T08:59:31;2.53;;;2.33;;
7843;SDS011;3967;48.702;9.326;2023-05-07T09:01:58;3.70;;;2.20;;
7843;SDS011;3967;48.702;9.326;2023-05-07T09:04:25;2.70;;;2.50;;
7843;SDS011;3967;48.702;9.326;2023-05-07T09:06:51;2.00;;;1.90;;
7843;SDS011;3967;48.702;9.326;2023-05-07T09:09:18;2.40;;;2.20;;
7843;SDS011;3967;48.702;9.326;2023-05-07T09:11:45;2.40;;;1.93;;
7843;SDS011;3967;48.702;9.326;2023-05-07T09:14:12;2.20;;;2.00;;
7843;SDS011;3967;48.702;9.326;2023-05-07T09:16:39;2.10;;;2.00;;
7843;SDS011;3967;48.702;9.326;2023-05-07T09:19:06;1.80;;;1.70;;
7843;SDS011;3967;48.702;9.326;2023-05-07T09:21:32;1.87;;;1.77;;
7843;SDS011;3967;48.702;9.326;2023-05-07T09:23:59;3.43;;;1.90;;
7843;SDS011;3967;48.702;9.326;2023-05-07T09:26:26;2.00;;;1.87;;
7843;SDS011;3967;48.702;9.326;2023-05-07T09:28:54;2.03;;;1.60;;
7843;SDS011;3967;48.702;9.326;2023-05-07T09:31:21;2.23;;;2.03;;
7843;SDS011;3967;48.702;9.326;2023-05-07T09:33:50;3.08;;;1.92;;
7843;SDS011;3967;48.702;9.326;2023-05-07T09:36:18;1.83;;;1.73;;
7843;SDS011;3967;48.702;9.326;2023-05-07T09:38:45;1.83;;;1.73;;
7843;SDS011;3967;48.702;9.326;2023-05-07T09:41:12;2.53;;;1.90;;
7843;SDS011;3967;48.702;9.326;2023-05-07T09:43:40;2.40;;;1.27;;
7843;SDS011;3967;48.702;9.326;2023-05-07T09:46:13;2.63;;;1.65;;
7843;SDS011;3967;48.702;9.326;2023-05-07T09:48:43;2.13;;;1.55;;
7843;SDS011;3967;48.702;9.326;2023-05-07T09:51:14;1.35;;;1.27;;
7843;SDS011;3967;48.702;9.326;2023-05-07T09:53:48;1.52;;;1.40;;
7843;SDS011;3967;48.702;9.326;2023-05-07T09:56:16;3.05;;;1.80;;
7843;SDS011;3967;48.702;9.326;2023-05-07T09:58:47;2.50;;;1.88;;
7843;SDS011;3967;48.702;9.326;2023-05-07T10:01:15;1.83;;;1.73;;
7843;SDS011;3967;48.702;9.326;2023-05-07T10:03:45;1.55;;;1.45;;
7843;SDS011;3967;48.702;9.326;2023-05-07T10:06:12;1.75;;;1.58;;
7843;SDS011;3967;48.702;9.326;2023-05-07T10:08:40;1.85;;;1.48;;
7843;SDS011;3967;48.702;9.326;2023-05-07T10:11:09;2.30;;;1.70;;
7843;SDS011;3967;48.702;9.326;2023-05-07T10:13:36;1.50;;;1.40;;
7843;SDS011;3967;48.702;9.326;2023-05-07T10:16:04;1.45;;;1.35;;
7843;SDS011;3967;48.702;9.326;2023-05-07T10:18:31;2.60;;;1.70;;
7843;SDS011;3967;48.702;9.326;2023-05-07T10:21:07;2.63;;;1.80;;
7843;SDS011;3967;48.702;9.326;2023-05-07T10:23:37;1.55;;;1.45;;
7843;SDS011;3967;48.702;9.326;2023-05-07T10:26:06;1.95;;;1.85;;
7843;SDS011;3967;48.702;9.326;2023-05-07T10:28:36;1.80;;;1.50;;
7843;SDS011;3967;48.702;9.326;2023-05-07T10:34:09;1.58;;;1.48;;
7843;SDS011;3967;48.702;9.326;2023-05-07T10:36:39;2.20;;;1.50;;
7843;SDS011;3967;48.702;9.326;2023-05-07T10:39:06;2.15;;;1.85;;
7843;SDS011;3967;48.702;9.326;2023-05-07T10:41:33;2.22;;;1.60;;
7843;SDS011;3967;48.702;9.326;2023-05-07T10:44:00;5.45;;;1.95;;
7843;SDS011;3967;48.702;9.326;2023-05-07T10:46:28;2.35;;;2.15;;
7843;SDS011;3967;48.702;9.326;2023-05-07T10:51:30;2.22;;;1.30;;
7843;SDS011;3967;48.702;9.326;2023-05-07T11:04:25;1.40;;;1.30;;
7843;SDS011;3967;48.702;9.326;2023-05-07T11:17:34;2.53;;;1.15;;
7843;SDS011;3967;48.702;9.326;2023-05-07T11:20:20;2.25;;;1.10;;
7843;SDS011;3967;48.702;9.326;2023-05-07T11:26:10;1.77;;;1.30;;
7843;SDS011;3967;48.702;9.326;2023-05-07T11:28:38;1.17;;;1.13;;
7843;SDS011;3967;48.702;9.326;2023-05-07T11:31:06;1.52;;;1.20;;
7843;SDS011;3967;48.702;9.326;2023-05-07T11:33:34;2.08;;;1.10;;
7843;SDS011;3967;48.702;9.326;2023-05-07T11:36:04;1.48;;;1.25;;
7843;SDS011;3967;48.702;9.326;2023-05-07T11:38:35;1.17;;;1.17;;
7843;SDS011;3967;48.702;9.326;2023-05-07T11:41:03;1.23;;;1.10;;
7843;SDS011;3967;48.702;9.326;2023-05-07T11:43:32;1.40;;;1.30;;
7843;SDS011;3967;48.702;9.326;2023-05-07T11:46:09;2.08;;;1.20;;
7843;SDS011;3967;48.702;9.326;2023-05-07T11:48:38;3.28;;;1.17;;
7843;SDS011;3967;48.702;9.326;2023-05-07T11:51:05;1.02;;;1.00;;
7843;SDS011;3967;48.702;9.326;2023-05-07T11:53:35;1.20;;;1.10;;
7843;SDS011;3967;48.702;9.326;2023-05-07T11:56:07;1.00;;;1.00;;
7843;SDS011;3967;48.702;9.326;2023-05-07T11:58:34;1.15;;;0.80;;
7843;SDS011;3967;48.702;9.326;2023-05-07T12:01:01;0.82;;;0.80;;
7843;SDS011;3967;48.702;9.326;2023-05-07T12:03:28;2.67;;;0.88;;
7843;SDS011;3967;48.702;9.326;2023-05-07T12:06:00;1.02;;;0.85;;
7843;SDS011;3967;48.702;9.326;2023-05-07T12:08:27;1.10;;;1.00;;
7843;SDS011;3967;48.702;9.326;2023-05-07T12:10:54;1.15;;;1.00;;
7843;SDS011;3967;48.702;9.326;2023-05-07T12:13:22;1.33;;;1.20;;
7843;SDS011;3967;48.702;9.326;2023-05-07T12:15:53;1.83;;;1.02;;
7843;SDS011;3967;48.702;9.326;2023-05-07T12:18:21;2.75;;;1.17;;
7843;SDS011;3967;48.702;9.326;2023-05-07T12:20:49;2.05;;;1.30;;
7843;SDS011;3967;48.702;9.326;2023-05-07T12:23:16;1.10;;;1.00;;
7843;SDS011;3967;48.702;9.326;2023-05-07T12:25:44;2.60;;;1.30;;
7843;SDS011;3967;48.702;9.326;2023-05-07T12:28:14;1.15;;;1.00;;
7843;SDS011;3967;48.702;9.326;2023-05-07T12:30:43;1.52;;;1.33;;
7843;SDS011;3967;48.702;9.326;2023-05-07T12:33:11;2.10;;;1.15;;
7843;SDS011;3967;48.702;9.326;2023-05-07T12:35:41;1.70;;;1.05;;
7843;SDS011;3967;48.702;9.326;2023-05-07T12:38:09;2.88;;;1.40;;
7843;SDS011;3967;48.702;9.326;2023-05-07T12:40:42;1.35;;;1.25;;
7843;SDS011;3967;48.702;9.326;2023-05-07T12:43:21;2.90;;;1.30;;
7843;SDS011;3967;48.702;9.326;2023-05-07T12:45:51;1.65;;;1.10;;
7843;SDS011;3967;48.702;9.326;2023-05-07T12:48:21;1.65;;;1.10;;
7843;SDS011;3967;48.702;9.326;2023-05-07T12:50:49;2.08;;;0.82;;
7843;SDS011;3967;48.702;9.326;2023-05-07T12:53:16;1.10;;;1.10;;
7843;SDS011;3967;48.702;9.326;2023-05-07T12:55:46;2.15;;;1.13;;
7843;SDS011;3967;48.702;9.326;2023-05-07T12:58:18;1.77;;;1.05;;
7843;SDS011;3967;48.702;9.326;2023-05-07T13:00:47;3.28;;;1.30;;
7843;SDS011;3967;48.702;9.326;2023-05-07T13:03:25;0.88;;;0.88;;
7843;SDS011;3967;48.702;9.326;2023-05-07T13:06:00;2.42;;;1.38;;
7843;SDS011;3967;48.702;9.326;2023-05-07T13:08:33;2.10;;;1.00;;
7843;SDS011;3967;48.702;9.326;2023-05-07T13:11:03;1.40;;;1.10;;
7843;SDS011;3967;48.702;9.326;2023-05-07T13:13:34;2.75;;;1.25;;
7843;SDS011;3967;48.702;9.326;2023-05-07T13:16:12;2.17;;;0.90;;
7843;SDS011;3967;48.702;9.326;2023-05-07T13:18:39;3.40;;;1.20;;
7843;SDS011;3967;48.702;9.326;2023-05-07T13:21:12;2.63;;;1.00;;
7843;SDS011;3967;48.702;9.326;2023-05-07T13:23:39;1.77;;;1.03;;
7843;SDS011;3967;48.702;9.326;2023-05-07T13:26:06;2.60;;;1.13;;
7843;SDS011;3967;48.702;9.326;2023-05-07T13:28:51;1.73;;;1.37;;
7843;SDS011;3967;48.702;9.326;2023-05-07T13:31:19;2.40;;;1.50;;
7843;SDS011;3967;48.702;9.326;2023-05-07T13:33:47;1.90;;;1.80;;
7843;SDS011;3967;48.702;9.326;2023-05-07T13:36:14;3.13;;;1.80;;
7843;SDS011;3967;48.702;9.326;2023-05-07T13:38:41;2.27;;;1.20;;
7843;SDS011;3967;48.702;9.326;2023-05-07T13:41:07;2.83;;;1.50;;
7843;SDS011;3967;48.702;9.326;2023-05-07T13:43:35;3.40;;;1.50;;
7843;SDS011;3967;48.702;9.326;2023-05-07T13:46:01;1.57;;;1.30;;
7843;SDS011;3967;48.702;9.326;2023-05-07T13:48:28;4.53;;;1.33;;
7843;SDS011;3967;48.702;9.326;2023-05-07T13:50:55;4.20;;;1.17;;
7843;SDS011;3967;48.702;9.326;2023-05-07T13:53:22;2.27;;;1.27;;
7843;SDS011;3967;48.702;9.326;2023-05-07T13:55:49;1.23;;;0.80;;
7843;SDS011;3967;48.702;9.326;2023-05-07T13:58:16;1.90;;;0.80;;
7843;SDS011;3967;48.702;9.326;2023-05-07T14:00:42;3.37;;;1.80;;
7843;SDS011;3967;48.702;9.326;2023-05-07T14:03:09;3.03;;;1.70;;
7843;SDS011;3967;48.702;9.326;2023-05-07T14:05:36;2.53;;;1.53;;
7843;SDS011;3967;48.702;9.326;2023-05-07T14:08:03;2.57;;;1.03;;
7843;SDS011;3967;48.702;9.326;2023-05-07T14:10:31;4.23;;;1.50;;
7843;SDS011;3967;48.702;9.326;2023-05-07T14:13:00;3.33;;;1.50;;
7843;SDS011;3967;48.702;9.326;2023-05-07T14:15:27;2.20;;;1.10;;
7843;SDS011;3967;48.702;9.326;2023-05-07T14:17:54;3.53;;;1.30;;
7843;SDS011;3967;48.702;9.326;2023-05-07T14:20:21;1.80;;;1.50;;
7843;SDS011;3967;48.702;9.326;2023-05-07T14:22:48;3.43;;;1.40;;
7843;SDS011;3967;48.702;9.326;2023-05-07T14:25:14;2.20;;;1.90;;
7843;SDS011;3967;48.702;9.326;2023-05-07T14:27:41;1.50;;;1.20;;
7843;SDS011;3967;48.702;9.326;2023-05-07T14:30:08;4.63;;;1.30;;
7843;SDS011;3967;48.702;9.326;2023-05-07T14:32:35;2.53;;;1.30;;
7843;SDS011;3967;48.702;9.326;2023-05-07T14:35:02;2.43;;;1.10;;
7843;SDS011;3967;48.702;9.326;2023-05-07T14:37:29;7.53;;;1.40;;
7843;SDS011;3967;48.702;9.326;2023-05-07T14:39:56;3.30;;;1.70;;
7843;SDS011;3967;48.702;9.326;2023-05-07T14:42:23;2.20;;;1.50;;
7843;SDS011;3967;48.702;9.326;2023-05-07T14:44:49;2.60;;;1.50;;
7843;SDS011;3967;48.702;9.326;2023-05-07T14:47:16;3.00;;;1.60;;
7843;SDS011;3967;48.702;9.326;2023-05-07T14:49:45;5.30;;;1.50;;
7843;SDS011;3967;48.702;9.326;2023-05-07T14:52:12;3.40;;;1.33;;
7843;SDS011;3967;48.702;9.326;2023-05-07T14:54:38;2.97;;;1.37;;
7843;SDS011;3967;48.702;9.326;2023-05-07T14:57:06;3.60;;;1.50;;
7843;SDS011;3967;48.702;9.326;2023-05-07T14:59:34;1.80;;;1.37;;
7843;SDS011;3967;48.702;9.326;2023-05-07T15:02:01;2.83;;;1.50;;
7843;SDS011;3967;48.702;9.326;2023-05-07T15:04:32;2.03;;;1.70;;
7843;SDS011;3967;48.702;9.326;2023-05-07T15:06:58;1.93;;;1.70;;
7843;SDS011;3967;48.702;9.326;2023-05-07T15:09:26;1.90;;;1.70;;
7843;SDS011;3967;48.702;9.326;2023-05-07T15:11:53;2.77;;;1.60;;
7843;SDS011;3967;48.702;9.326;2023-05-07T15:14:19;1.67;;;1.53;;
7843;SDS011;3967;48.702;9.326;2023-05-07T15:16:48;2.63;;;1.60;;
7843;SDS011;3967;48.702;9.326;2023-05-07T15:19:15;3.43;;;1.67;;
7843;SDS011;3967;48.702;9.326;2023-05-07T15:21:42;3.77;;;1.53;;
7843;SDS011;3967;48.702;9.326;2023-05-07T15:24:09;2.50;;;1.40;;
7843;SDS011;3967;48.702;9.326;2023-05-07T15:26:36;2.47;;;1.80;;
7843;SDS011;3967;48.702;9.326;2023-05-07T15:29:03;3.07;;;2.13;;
7843;SDS011;3967;48.702;9.326;2023-05-07T15:31:34;3.50;;;1.90;;
7843;SDS011;3967;48.702;9.326;2023-05-07T15:34:01;3.37;;;1.90;;
7843;SDS011;3967;48.702;9.326;2023-05-07T15:36:28;3.40;;;1.67;;
7843;SDS011;3967;48.702;9.326;2023-05-07T15:38:55;2.40;;;1.53;;
7843;SDS011;3967;48.702;9.326;2023-05-07T15:41:21;2.00;;;1.90;;
7843;SDS011;3967;48.702;9.326;2023-05-07T15:43:49;4.40;;;2.10;;
7843;SDS011;3967;48.702;9.326;2023-05-07T15:46:21;5.53;;;2.10;;
7843;SDS011;3967;48.702;9.326;2023-05-07T15:48:52;2.27;;;1.70;;